Oracle, AZ (85623)

03:23 PM MST on September 27, 2016 (GMT -0700)
Breezy Acres | | Change Station

Elev 4272 ft 32.62 °N, 110.80 °W | Updated 6 minutes ago

Scattered Clouds
Spredte skyer
71.6 ° F
Føles som 77 ° F
N
5.8
Vind Skiftende Vind ØSØ

I dag
Høj -- | Lav -- ° F
--% Risiko for nedbør
I går
Høj -- | Lav -- ° F
Precip. -- tommer
Tryk 29.88 tommer
Sigtbarhed 10.0 mil
Skyer Spredte skyer 7500 ft
Varmeindeks 77 ° F
Dugpunkt 53 ° F
Luftfugtighed 52%
Regnmængde 0.14 tommer
Snedybde Ikke tilgængelig.
6:14 AM 6:12 PM
Aftagende halvmåne, 9% visible
METAR KDMA 272158Z AUTO VRB02KT 10SM SCT075 28/12 A2998 RMK AO2 SLP116 T02780118 CHINO RWY30 $
Tryk 29.88 tommer
Sigtbarhed 10.0 mil
Skyer Spredte skyer 7500 ft
Varmeindeks 77 ° F
Dugpunkt 53 ° F
Luftfugtighed 52%
Regnmængde 0.14 tommer
Snedybde Ikke tilgængelig.
6:14 AM 6:12 PM
Aftagende halvmåne, 9% visible
METAR KDMA 272158Z AUTO VRB02KT 10SM SCT075 28/12 A2998 RMK AO2 SLP116 T02780118 CHINO RWY30 $

10-Day Weather Forecast

Almanac

Astronomi

Sep. 27, 2016 Opgang Nedgang
Faktisktidspunkt
Civilttusmørke
Nautisktusmørke
Astronomisktusmørke
Måne
Synligtlys’ længde
Dagens længde
Tomorrow will be .
, % of the Moon is Illuminated

Ekstremer i dag

State Highs State Lows

Community

WunderPhotos

Upload Photos

1,942,168 Billeder uploaded!

WunderBlog® & News

Nearby

Luftkvalitet

  Luftkvalitet AQ-indeks Forureningskilder
Not available.

Snedybde

Station Depth Højde

Jordskælvsaktivitet

By Distance Mag. Time & Date
Minimum magnitude displayed is 2.5.

Kystnære vandtemperaturer

Sted Temperatur

Stations

Vejrstationer i nærheden

Stationenssted Temp. Vindeffekt Dugpunkt Luftfugtighed Vind Precip. Elev Opdateret Type
                   

Watches & Warnings

There are currently no watches in effect.